Ora Direzione Vento Velocita' Vento Media Vento Raffica Max. Temperatura Wind Chill Pioggia Pressione
07:45:52.0355 °(N)12.32 Kts14.46 Kts17.36 Kts18.3 °C17.79 °C0.0 mm1015.5 Hpa
07:24:42.0347 °(NNW)12.6 Kts12.32 Kts16.52 Kts17.7 °C16.99 °C0.0 mm1016.4 Hpa
07:05:31.0341 °(NNW)12.6 Kts12.74 Kts15.4 Kts16.3 °C15.2 °C0.0 mm1018.3 Hpa
06:44:21.0233 °(SW)1.26 Kts1.77 Kts15.4 Kts14.8 °C16.1 °C0.0 mm1015.8 Hpa
06:25:21.0231 °(SW)1.96 Kts3.26 Kts15.4 Kts14.8 °C15.6 °C0.0 mm1015.8 Hpa
06:04:02.0222 °(SW)1.82 Kts1.82 Kts15.4 Kts14.3 °C15.17 °C0.0 mm1017.9 Hpa
05:45:04.0218 °(SW)5.18 Kts4.76 Kts15.4 Kts14.5 °C14.1 °C0.0 mm1015.3 Hpa
05:23:57.0179 °(S)4.34 Kts4.94 Kts15.4 Kts14.5 °C14.32 °C0.0 mm1014.8 Hpa
05:05:03.0186 °(S)3.64 Kts2.66 Kts15.4 Kts13.8 °C13.79 °C0.0 mm1016.6 Hpa
04:43:55.0280 °(W)4.34 Kts4.48 Kts15.4 Kts14.5 °C14.32 °C0.0 mm1015.8 Hpa
04:24:47.0288 °(WNW)3.5 Kts4.85 Kts15.4 Kts13.1 °C13.04 °C0.0 mm1017.4 Hpa
04:05:41.0254 °(WSW)4.76 Kts3.54 Kts15.4 Kts13.5 °C13.09 °C0.0 mm1016.6 Hpa
03:44:28.0248 °(WSW)5.74 Kts5.27 Kts15.4 Kts13.8 °C13.2 °C0.0 mm1015.9 Hpa
03:25:33.0253 °(WSW)3.78 Kts3.92 Kts15.4 Kts14.0 °C13.91 °C0.0 mm1015.3 Hpa
03:04:30.0245 °(WSW)3.78 Kts3.4 Kts15.4 Kts14.3 °C14.25 °C0.0 mm1015.6 Hpa
02:45:24.0256 °(WSW)5.18 Kts6.02 Kts15.4 Kts15.8 °C15.64 °C0.0 mm1014.5 Hpa
02:24:07.046 °(NE)1.54 Kts3.36 Kts15.4 Kts16.5 °C17.72 °C0.0 mm1016.0 Hpa
02:05:19.01 °(N)7.28 Kts3.87 Kts15.4 Kts16.7 °C16.38 °C0.0 mm1015.7 Hpa
01:44:05.051 °(NE)7.28 Kts7.6 Kts15.4 Kts17.2 °C16.98 °C0.0 mm1016.0 Hpa
01:25:06.054 °(NE)12.6 Kts10.54 Kts15.4 Kts17.3 °C16.48 °C0.0 mm1015.4 Hpa